Portada
METAR-TAF:

METAR-TAF

Aeroports :

Sarajevo, Bòsnia i Hercegovina

latitud: 43-49N, longitud: 018-20E, altitud: 511 m

Observació

L'informe es va fer fa 38 minuts, a les 06:30 UTC
Vent 2 kt amb direcció variable
Temperatura 23°C
Humitat 73%
Pressió 1013 hPa
Visibilitat 10 km o més
sense núvols per sota de 1500 mi sense presència de cumulonimbus.

METAR: LQSA 220630Z VRB02KT CAVOK 23/18 Q1013 NOSIG

Hora: 09:08 (07:08 UTC)

Pronòstic

L'informe es va fer fa 2 hores i 8 minuts, a les 05:00 UTC
Pronòstic vàlid del 22 a les 06 UTC al 23 a les 06 UTC
Vent 2 kt amb direcció variable
Visibilitat 10 km o més
sense núvols per sota de 1500 mi sense presència de cumulonimbus.
Probabilitat 30% :
Temporalment
l' 22 a les 11 UTC al 22 a les 16 UTC
Vent 12 kt amb direcció variable
Escasses núvols a una alçada de 4000 ft, Cumulonimbus.
Núvols disperses a una alçada de 5000 ft
tempesta, pluja,

TAF: LQSA 220500Z 2206/2306 VRB02KT CAVOK TX35/2213Z TN18/2303Z PROB30 TEMPO 2211/2216 VRB12KT TSRA FEW040CB SCT050

Observacions i pronòstics meteorològics de més de 4000 aeroports (METAR i TAF).

Les estacions disponibles són els punts grocs i vermells al mapa.

Posi el ratolí al punt desitjat per veure el nom de l'estació.

Feu clic per veure les observacions i els pronòstics meteorològics.

Per canviar el mapa: feu clic els botons verds amb una creu de color negre per apropar; al botó verd amb un guió per allunyar la imatge; o en les fletxes verdes per a mapes adjacents.


METAR-TAF: